Noruega — CSDJ — position and weather

sailwx.info

Track history (hours):
 
Tides and Currents Weather Stations Pressure Air Temp Water Temp Dewpoint Dewpoint Depression Visibility Wind Speed Wind Dir Waves Ship Positions

Oceanographic research ship Noruega (Portugal)

Detailed information on ship capabilities available from University of Delaware's Ocean Information Center.

Last reported at 2019-Apr-17 07:29 UTC. Time now 2019-Apr-18 10:29 UTC.
Position N 41°11' W 008°44'.

Length 47 m; draft 5.2 m.

Type: Neutral ship in war zone. MMSI: 263601000.

Date/timePositionNaut miles runAvg speedWind from/ knotsBaromVisibWave heightAir tempDewpointWater temp
2019-Apr-17 07:29N 41°11' W 008°44'1 0.7
2019-Apr-17 06:40N 41°12' W 008°44'1 0.0
2019-Apr-16 20:03N 41°11' W 008°44'0 0.6
2019-Apr-16 19:40N 41°11' W 008°44'  
2019-Apr-13 21:32N 39°13' W 009°26'1 7.5
2019-Apr-13 21:28N 39°13' W 009°27'3 7.5
2019-Apr-13 21:00N 39°09' W 009°27'4 7.4
2019-Apr-13 20:30N 39°06' W 009°27'4 7.4
2019-Apr-13 20:01N 39°02' W 009°28'4 7.3
2019-Apr-13 19:30N 38°58' W 009°28'3 7.1
2019-Apr-13 19:01N 38°55' W 009°29'4 7.3
2019-Apr-13 18:31N 38°51' W 009°30'4 7.4
2019-Apr-13 18:00N 38°48' W 009°32'4 7.2
2019-Apr-13 17:30N 38°44' W 009°31'3 7.0
2019-Apr-13 17:00N 38°41' W 009°29'3 6.0
2019-Apr-13 16:30N 38°41' W 009°25'0 0.4
2019-Apr-13 16:00N 38°41' W 009°25'0 0.2
2019-Apr-13 15:30N 38°41' W 009°25'0 0.3
2019-Apr-13 15:01N 38°41' W 009°25'0 0.2
2019-Apr-13 14:30N 38°41' W 009°25'0 0.4
2019-Apr-13 14:00N 38°41' W 009°25'0 0.3
2019-Apr-13 13:30N 38°41' W 009°24'2 3.8
2019-Apr-13 13:00N 38°39' W 009°25'2 3.4
2019-Apr-13 12:30N 38°39' W 009°27'2 4.6
2019-Apr-13 12:00N 38°40' W 009°30'2 3.1
2019-Apr-13 11:30N 38°39' W 009°28'3 5.5
2019-Apr-13 11:00N 38°40' W 009°25'0 1.0
2019-Apr-13 10:30N 38°40' W 009°25'0 0.0
2019-Apr-13 10:00N 38°40' W 009°24'0 0.0
2019-Apr-13 09:30N 38°40' W 009°24'0 0.0
2019-Apr-13 09:00N 38°40' W 009°24'0 0.1
2019-Apr-13 08:30N 38°40' W 009°25'2 3.1
2019-Apr-13 08:00N 38°40' W 009°26'1 1.9
2019-Apr-13 07:30N 38°40' W 009°25'0 0.7
2019-Apr-13 07:00N 38°40' W 009°26'0 0.7
2019-Apr-13 06:30N 38°40' W 009°26'1 2.1
2019-Apr-13 06:00N 38°40' W 009°25'1 1.8
2019-Apr-13 05:30N 38°40' W 009°24'0 0.0
2019-Apr-13 05:00N 38°40' W 009°24'0 0.0
2019-Apr-13 04:30N 38°40' W 009°24'0 0.0
2019-Apr-13 04:00N 38°40' W 009°24'0 0.0
2019-Apr-13 03:30N 38°40' W 009°24'0 0.0
2019-Apr-13 03:00N 38°40' W 009°24'0 0.0
2019-Apr-13 02:30N 38°40' W 009°24'0 0.0
2019-Apr-13 01:59N 38°40' W 009°24'0 0.0
2019-Apr-13 01:29N 38°40' W 009°24'0 0.0
2019-Apr-13 01:00N 38°40' W 009°24'0 0.0
2019-Apr-13 00:29N 38°40' W 009°24'0 0.0
2019-Apr-13 00:00N 38°40' W 009°24'0 0.0
2019-Apr-12 23:30N 38°40' W 009°24'0 0.0
2019-Apr-12 23:00N 38°40' W 009°24'0 0.0
2019-Apr-12 22:30N 38°40' W 009°24'2 4.2
2019-Apr-12 21:58N 38°38' W 009°24'2 4.7
2019-Apr-12 21:30N 38°38' W 009°21'4 7.5
2019-Apr-12 21:00N 38°41' W 009°17'3 6.3
2019-Apr-12 20:30N 38°42' W 009°14'0 0.1
2019-Apr-12 19:58N 38°42' W 009°14'0 0.0
2019-Apr-12 19:29N 38°42' W 009°14'0 0.0
2019-Apr-12 18:58N 38°42' W 009°14'0 0.0
2019-Apr-12 18:29N 38°42' W 009°14'0 0.0
2019-Apr-12 18:00N 38°42' W 009°14'0 0.0
2019-Apr-12 17:30N 38°42' W 009°14'0 0.0
2019-Apr-12 17:00N 38°42' W 009°14'0 0.0
2019-Apr-12 16:29N 38°42' W 009°14'0 0.0
2019-Apr-12 16:00N 38°42' W 009°14'0 0.0
2019-Apr-12 15:29N 38°42' W 009°14'0 0.0
2019-Apr-12 14:59N 38°42' W 009°14'0 0.0
2019-Apr-12 14:28N 38°42' W 009°14'0 0.0
2019-Apr-12 14:00N 38°42' W 009°14'0 0.0
2019-Apr-12 13:27N 38°42' W 009°14'0 0.0
2019-Apr-12 12:59N 38°42' W 009°14'0 0.0
2019-Apr-12 12:30N 38°42' W 009°14'0 0.0
2019-Apr-12 12:00N 38°42' W 009°14'0 0.0
2019-Apr-12 11:29N 38°42' W 009°14'0 0.0
2019-Apr-12 10:58N 38°42' W 009°14'0 0.0
2019-Apr-12 10:30N 38°42' W 009°14'0 0.0
2019-Apr-12 10:00N 38°42' W 009°14'0 0.0
2019-Apr-12 09:30N 38°42' W 009°14'0 0.0
2019-Apr-12 09:00N 38°42' W 009°14'0 0.0
2019-Apr-12 08:30N 38°42' W 009°14'0 0.0
2019-Apr-12 07:51N 38°42' W 009°14'0 0.0
2019-Apr-12 07:30N 38°42' W 009°14'0 0.0
2019-Apr-12 06:59N 38°42' W 009°14'0 0.0
2019-Apr-12 06:30N 38°42' W 009°14'0 0.0
2019-Apr-12 05:58N 38°42' W 009°14'0 0.0
2019-Apr-12 05:30N 38°42' W 009°14'0 0.0
2019-Apr-12 04:55N 38°42' W 009°14'0 0.0
2019-Apr-12 04:30N 38°42' W 009°14'0 0.0
2019-Apr-12 03:56N 38°42' W 009°14'0 0.0
2019-Apr-12 03:30N 38°42' W 009°14'0 0.0
2019-Apr-12 02:59N 38°42' W 009°14'0 0.0
2019-Apr-12 02:29N 38°42' W 009°14'0 0.0
2019-Apr-12 01:59N 38°42' W 009°14'0 0.0
2019-Apr-12 01:24N 38°42' W 009°14'0 0.0
2019-Apr-12 01:00N 38°42' W 009°14'0 0.0
2019-Apr-12 00:29N 38°42' W 009°14'0 0.0
2019-Apr-11 23:57N 38°42' W 009°14'0 0.0
2019-Apr-11 23:27N 38°42' W 009°14'0 0.0
2019-Apr-11 23:00N 38°42' W 009°14'0 0.0
2019-Apr-11 22:29N 38°42' W 009°14'0 0.0
2019-Apr-11 21:59N 38°42' W 009°14'0 0.0
2019-Apr-11 21:30N 38°42' W 009°14'0 0.0
2019-Apr-11 21:00N 38°42' W 009°14'0 0.0
2019-Apr-11 20:30N 38°42' W 009°14'0 0.0
2019-Apr-11 19:59N 38°42' W 009°14'0 0.0
2019-Apr-11 19:25N 38°42' W 009°14'0 0.0
2019-Apr-11 18:58N 38°42' W 009°14'0 0.0
2019-Apr-11 18:24N 38°42' W 009°14'0 0.0
2019-Apr-11 17:54N 38°42' W 009°14'0 0.0
2019-Apr-11 17:28N 38°42' W 009°14'0 0.0
2019-Apr-11 17:00N 38°42' W 009°14'0 0.0
2019-Apr-11 16:26N 38°42' W 009°14'0 0.0
2019-Apr-11 16:00N 38°42' W 009°14'0 0.0
2019-Apr-11 15:29N 38°42' W 009°14'0 0.0
2019-Apr-11 14:57N 38°42' W 009°14'0 0.0
2019-Apr-11 14:29N 38°42' W 009°14'0 0.0
2019-Apr-11 13:58N 38°42' W 009°14'0 0.0
2019-Apr-11 13:30N 38°42' W 009°14'0 0.0
2019-Apr-11 12:58N 38°42' W 009°14'0 0.0
2019-Apr-11 12:22N 38°42' W 009°14'0 0.0
2019-Apr-11 12:00N 38°42' W 009°14'0 0.0
2019-Apr-11 11:30N 38°42' W 009°14'0 0.0
2019-Apr-11 11:00N 38°42' W 009°14'0 0.0
2019-Apr-11 10:29N 38°42' W 009°14'0 0.0
2019-Apr-11 10:00N 38°42' W 009°14'0 0.0
2019-Apr-11 09:29N 38°42' W 009°14'0 0.0
2019-Apr-11 09:00N 38°42' W 009°14'0 0.0
2019-Apr-11 08:25N 38°42' W 009°14'0 0.0
2019-Apr-11 07:59N 38°42' W 009°14'0 0.0
2019-Apr-11 07:30N 38°42' W 009°14'0 0.0
2019-Apr-11 06:59N 38°42' W 009°14'0 0.0
2019-Apr-11 06:20N 38°42' W 009°14'0 0.0
2019-Apr-11 06:00N 38°42' W 009°14'0 0.0
2019-Apr-11 05:30N 38°42' W 009°14'0 0.0
2019-Apr-11 05:00N 38°42' W 009°14'0 0.0
2019-Apr-11 04:26N 38°42' W 009°14'0 0.0
2019-Apr-11 03:53N 38°42' W 009°14'0 0.0
2019-Apr-11 03:27N 38°42' W 009°14'0 0.0
2019-Apr-11 02:59N 38°42' W 009°14'0 0.0
2019-Apr-11 02:30N 38°42' W 009°14'0 0.0
2019-Apr-11 02:00N 38°42' W 009°14'0 0.0
2019-Apr-11 01:30N 38°42' W 009°14'0 0.0
2019-Apr-11 00:55N 38°42' W 009°14'0 0.0
2019-Apr-11 00:21N 38°42' W 009°14'0 0.0
2019-Apr-10 23:59N 38°42' W 009°14'0 0.0
2019-Apr-10 23:29N 38°42' W 009°14'0 0.0
2019-Apr-10 23:00N 38°42' W 009°14'0 0.0
2019-Apr-10 22:29N 38°42' W 009°14'0 0.0
2019-Apr-10 22:00N 38°42' W 009°14'0 0.0
2019-Apr-10 21:29N 38°42' W 009°14'0 0.0
2019-Apr-10 20:59N 38°42' W 009°14'0 0.0
2019-Apr-10 20:30N 38°42' W 009°14'0 0.0
2019-Apr-10 19:58N 38°42' W 009°14'0 0.0
2019-Apr-10 19:26N 38°42' W 009°14'0 0.0
2019-Apr-10 19:00N 38°42' W 009°14'0 0.0
2019-Apr-10 18:28N 38°42' W 009°14'0 0.0
2019-Apr-10 18:00N 38°42' W 009°14'0 0.0
2019-Apr-10 17:30N 38°42' W 009°14'0 0.0
2019-Apr-10 16:54N 38°42' W 009°14'0 0.0
2019-Apr-10 16:24N 38°42' W 009°14'0 0.0
2019-Apr-10 15:59N 38°42' W 009°14'0 0.0
2019-Apr-10 15:30N 38°42' W 009°14'0 0.0
2019-Apr-10 14:59N 38°42' W 009°14'0 0.0
2019-Apr-10 14:30N 38°42' W 009°14'0 0.0
2019-Apr-10 13:57N 38°42' W 009°14'0 0.0
2019-Apr-10 13:30N 38°42' W 009°14'0 0.0
2019-Apr-10 13:00N 38°42' W 009°14'0 0.0
2019-Apr-10 12:30N 38°42' W 009°14'0 0.0
2019-Apr-10 11:58N 38°42' W 009°14'0 0.0
2019-Apr-10 11:30N 38°42' W 009°14'0 0.0
2019-Apr-10 10:59N 38°42' W 009°14'0 0.0
2019-Apr-10 10:19N 38°42' W 009°14'0 0.0
2019-Apr-10 09:57N 38°42' W 009°14'0 0.0
2019-Apr-10 09:30N 38°42' W 009°14'0 0.0
2019-Apr-10 09:00N 38°42' W 009°14'0 0.0
2019-Apr-10 08:30N 38°42' W 009°14'0 0.0
2019-Apr-10 08:00N 38°42' W 009°14'0 0.0
2019-Apr-10 07:30N 38°42' W 009°14'0 0.0
2019-Apr-10 06:59N 38°42' W 009°14'0 0.0
2019-Apr-10 06:29N 38°42' W 009°14'0 0.0
2019-Apr-10 06:00N 38°42' W 009°14'0 0.0
2019-Apr-10 05:30N 38°42' W 009°14'0 0.0
2019-Apr-10 04:59N 38°42' W 009°14'0 0.0
2019-Apr-10 04:30N 38°42' W 009°14'0 0.0
2019-Apr-10 04:00N 38°42' W 009°14'0 0.0
2019-Apr-10 03:29N 38°42' W 009°14'0 0.0
2019-Apr-10 02:58N 38°42' W 009°14'0 0.0
2019-Apr-10 02:30N 38°42' W 009°14'0 0.0
2019-Apr-10 01:59N 38°42' W 009°14'0 0.0
2019-Apr-10 01:29N 38°42' W 009°14'0 0.0
2019-Apr-10 00:59N 38°42' W 009°14'0 0.0
2019-Apr-10 00:28N 38°42' W 009°14'0 0.0
2019-Apr-09 23:58N 38°42' W 009°14'0 0.0
2019-Apr-09 23:25N 38°42' W 009°14'0 0.0
2019-Apr-09 22:58N 38°42' W 009°14'0 0.0
2019-Apr-09 22:30N 38°42' W 009°14'0 0.0
2019-Apr-09 22:00N 38°42' W 009°14'0 0.0
2019-Apr-09 21:30N 38°42' W 009°14'0 0.0
2019-Apr-09 20:58N 38°42' W 009°14'0 0.0
2019-Apr-09 20:30N 38°42' W 009°14'0 0.0
2019-Apr-09 19:56N 38°42' W 009°14'0 0.0
2019-Apr-09 19:30N 38°42' W 009°14'0 0.0
2019-Apr-09 18:59N 38°42' W 009°14'0 0.0
2019-Apr-09 18:29N 38°42' W 009°14'0 0.0
2019-Apr-09 17:59N 38°42' W 009°14'0 0.0
2019-Apr-09 17:28N 38°42' W 009°14'0 0.0
2019-Apr-09 17:00N 38°42' W 009°14'0 0.0
2019-Apr-09 16:29N 38°42' W 009°14'0 0.0
2019-Apr-09 15:57N 38°42' W 009°14'0 0.0
2019-Apr-09 15:30N 38°42' W 009°14'0 0.0
2019-Apr-09 15:00N 38°42' W 009°14'0 0.0
2019-Apr-09 14:30N 38°42' W 009°14'0 0.0
2019-Apr-09 14:00N 38°42' W 009°14'0 0.0
2019-Apr-09 13:26N 38°42' W 009°14'0 0.0
2019-Apr-09 12:59N 38°42' W 009°14'0 0.0
2019-Apr-09 12:30N 38°42' W 009°14'0 0.0
2019-Apr-09 11:59N 38°42' W 009°14'0 0.0
2019-Apr-09 11:30N 38°42' W 009°14'0 0.0
2019-Apr-09 10:55N 38°42' W 009°14'0 0.0
2019-Apr-09 10:28N 38°42' W 009°14'0 0.0
2019-Apr-09 09:59N 38°42' W 009°14'0 0.0
2019-Apr-09 09:30N 38°42' W 009°14'0 0.0
2019-Apr-09 08:58N 38°42' W 009°14'0 0.0
2019-Apr-09 08:30N 38°42' W 009°14'0 0.0
2019-Apr-09 08:00N 38°42' W 009°14'0 0.0
2019-Apr-09 07:29N 38°42' W 009°14'0 0.0
2019-Apr-09 06:57N 38°42' W 009°14'0 0.0
2019-Apr-09 06:30N 38°42' W 009°14'0 0.0
2019-Apr-09 06:00N 38°42' W 009°14'0 0.0
2019-Apr-09 05:30N 38°42' W 009°14'0 0.0
2019-Apr-09 04:59N 38°42' W 009°14'0 0.0
2019-Apr-09 04:30N 38°42' W 009°14'0 0.0
2019-Apr-09 03:57N 38°42' W 009°14'0 0.0
2019-Apr-09 03:30N 38°42' W 009°14'0 0.0
2019-Apr-09 03:00N 38°42' W 009°14'0 0.0
2019-Apr-09 02:30N 38°42' W 009°14'0 0.0
2019-Apr-09 01:59N 38°42' W 009°14'0 0.0
2019-Apr-09 01:28N 38°42' W 009°14'0 0.0
2019-Apr-09 00:58N 38°42' W 009°14'0 0.0
2019-Apr-09 00:30N 38°42' W 009°14'0 0.0
2019-Apr-09 00:00N 38°42' W 009°14'0 0.0
2019-Apr-08 23:16N 38°42' W 009°14'0 0.0
2019-Apr-08 22:56N 38°42' W 009°14'0 0.0
2019-Apr-08 22:28N 38°42' W 009°14'0 0.0
2019-Apr-08 22:00N 38°42' W 009°14'0 0.0
2019-Apr-08 21:30N 38°42' W 009°14'0 0.0
2019-Apr-08 21:00N 38°42' W 009°14'0 0.0
2019-Apr-08 20:26N 38°42' W 009°14'0 0.0
2019-Apr-08 20:00N 38°42' W 009°14'0 0.0
2019-Apr-08 19:29N 38°42' W 009°14'0 0.0
2019-Apr-08 18:56N 38°42' W 009°14'0 0.0
2019-Apr-08 18:30N 38°42' W 009°14'0 0.0
2019-Apr-08 17:58N 38°42' W 009°14'0 0.0
2019-Apr-08 17:30N 38°42' W 009°14'0 0.0
2019-Apr-08 16:35N 38°42' W 009°14'0 0.0
2019-Apr-08 16:28N 38°42' W 009°14'0 0.0
2019-Apr-08 16:00N 38°42' W 009°14'0 0.0
2019-Apr-08 15:26N 38°42' W 009°14'0 0.0
2019-Apr-08 14:57N 38°42' W 009°14'0 0.0
2019-Apr-08 14:29N 38°42' W 009°14'0 0.0
2019-Apr-08 13:59N 38°42' W 009°14'0 0.0
2019-Apr-08 13:30N 38°42' W 009°14'0 0.0
2019-Apr-08 12:53N 38°42' W 009°14'0 0.0
2019-Apr-08 12:29N 38°42' W 009°14'0 0.0
2019-Apr-08 11:59N 38°42' W 009°14'0 0.0
2019-Apr-08 11:29N 38°42' W 009°14'0 0.0
2019-Apr-08 10:56N 38°42' W 009°14'0 0.0
2019-Apr-08 10:30N 38°42' W 009°14'0 0.0
2019-Apr-08 09:56N 38°42' W 009°14'0 0.0
2019-Apr-08 09:29N 38°42' W 009°14'0 0.0
2019-Apr-08 09:00N 38°42' W 009°14'0 0.0
2019-Apr-08 08:30N 38°42' W 009°14'0 0.0
2019-Apr-08 08:00N 38°42' W 009°14'0 0.0
2019-Apr-08 07:30N 38°42' W 009°14'0 0.0
2019-Apr-08 06:59N 38°42' W 009°14'0 0.0
2019-Apr-08 06:30N 38°42' W 009°14'0 0.0
2019-Apr-08 05:59N 38°42' W 009°14'0 0.0
2019-Apr-08 05:30N 38°42' W 009°14'0 0.0
2019-Apr-08 04:50N 38°42' W 009°14'0 0.0
2019-Apr-08 04:30N 38°42' W 009°14'0 0.0
2019-Apr-08 04:00N 38°42' W 009°14'0 0.0
2019-Apr-08 03:30N 38°42' W 009°14'0 0.0
2019-Apr-08 02:58N 38°42' W 009°14'0 0.0
2019-Apr-08 02:29N 38°42' W 009°14'0 0.0
2019-Apr-08 02:00N 38°42' W 009°14'0 0.0
2019-Apr-08 01:30N 38°42' W 009°14'0 0.0
2019-Apr-08 00:59N 38°42' W 009°14'0 0.0
2019-Apr-08 00:30N 38°42' W 009°14'0 0.0
2019-Apr-08 00:00N 38°42' W 009°14'0 0.0
2019-Apr-07 23:30N 38°42' W 009°14'0 0.0
2019-Apr-07 22:58N 38°42' W 009°14'0 0.0
2019-Apr-07 22:30N 38°42' W 009°14'0 0.0
2019-Apr-07 21:57N 38°42' W 009°14'0 0.0
2019-Apr-07 21:30N 38°42' W 009°14'0 0.0
2019-Apr-07 21:00N 38°42' W 009°14'0 0.0
2019-Apr-07 20:30N 38°42' W 009°14'0 0.0
2019-Apr-07 20:00N 38°42' W 009°14'0 0.0
2019-Apr-07 19:30N 38°42' W 009°14'0 0.0
2019-Apr-07 19:00N 38°42' W 009°14'0 0.0
2019-Apr-07 18:30N 38°42' W 009°14'0 0.0
2019-Apr-07 18:00N 38°42' W 009°14'0 0.0
2019-Apr-07 17:30N 38°42' W 009°14'0 0.0
2019-Apr-07 17:00N 38°42' W 009°14'0 0.0
2019-Apr-07 16:29N 38°42' W 009°14'0 0.0
2019-Apr-07 16:00N 38°42' W 009°14'0 0.0
2019-Apr-07 15:28N 38°42' W 009°14'0 0.0
2019-Apr-07 15:00N 38°42' W 009°14'0 0.0
2019-Apr-07 14:30N 38°42' W 009°14'0 0.0
2019-Apr-07 14:00N 38°42' W 009°14'0 0.0
2019-Apr-07 13:30N 38°42' W 009°14'0 0.0
2019-Apr-07 13:00N 38°42' W 009°14'0 0.0
2019-Apr-07 12:27N 38°42' W 009°14'0 0.0
2019-Apr-07 12:00N 38°42' W 009°14'0 0.0
2019-Apr-07 11:25N 38°42' W 009°14'0 0.0
2019-Apr-07 11:00N 38°42' W 009°14'0 0.0
2019-Apr-07 10:30N 38°42' W 009°14'0 0.0
2019-Apr-07 09:59N 38°42' W 009°14'0 0.0
2019-Apr-07 09:30N 38°42' W 009°14'0 0.0
2019-Apr-07 09:00N 38°42' W 009°14'0 0.0
2019-Apr-07 08:30N 38°42' W 009°14'0 0.0
2019-Apr-07 08:00N 38°42' W 009°14'  
Track history (hours):
 
Tides and Currents Weather Stations Pressure Air Temp Water Temp Dewpoint Dewpoint Depression Visibility Wind Speed Wind Dir Waves Ship Positions

Oceanographic research ship Noruega (Portugal)

Detailed information on ship capabilities available from University of Delaware's Ocean Information Center.

Last reported at 2019-Apr-17 07:29 UTC. Time now 2019-Apr-18 10:29 UTC.
Position N 41°11' W 008°44'.

Length 47 m; draft 5.2 m.

Type: Neutral ship in war zone. MMSI: 263601000.

Date/timePositionNaut miles runAvg speedWind from/ knotsBaromVisibWave heightAir tempDewpointWater temp
2019-Apr-17 07:29N 41°11' W 008°44'1 0.7
2019-Apr-17 06:40N 41°12' W 008°44'1 0.0
2019-Apr-16 20:03N 41°11' W 008°44'0 0.6
2019-Apr-16 19:40N 41°11' W 008°44'  
2019-Apr-13 21:32N 39°13' W 009°26'1 7.5
2019-Apr-13 21:28N 39°13' W 009°27'3 7.5
2019-Apr-13 21:00N 39°09' W 009°27'4 7.4
2019-Apr-13 20:30N 39°06' W 009°27'4 7.4
2019-Apr-13 20:01N 39°02' W 009°28'4 7.3
2019-Apr-13 19:30N 38°58' W 009°28'3 7.1
2019-Apr-13 19:01N 38°55' W 009°29'4 7.3
2019-Apr-13 18:31N 38°51' W 009°30'4 7.4
2019-Apr-13 18:00N 38°48' W 009°32'4 7.2
2019-Apr-13 17:30N 38°44' W 009°31'3 7.0
2019-Apr-13 17:00N 38°41' W 009°29'3 6.0
2019-Apr-13 16:30N 38°41' W 009°25'0 0.4
2019-Apr-13 16:00N 38°41' W 009°25'0 0.2
2019-Apr-13 15:30N 38°41' W 009°25'0 0.3
2019-Apr-13 15:01N 38°41' W 009°25'0 0.2
2019-Apr-13 14:30N 38°41' W 009°25'0 0.4
2019-Apr-13 14:00N 38°41' W 009°25'0 0.3
2019-Apr-13 13:30N 38°41' W 009°24'2 3.8
2019-Apr-13 13:00N 38°39' W 009°25'2 3.4
2019-Apr-13 12:30N 38°39' W 009°27'2 4.6
2019-Apr-13 12:00N 38°40' W 009°30'2 3.1
2019-Apr-13 11:30N 38°39' W 009°28'3 5.5
2019-Apr-13 11:00N 38°40' W 009°25'0 1.0
2019-Apr-13 10:30N 38°40' W 009°25'0 0.0
2019-Apr-13 10:00N 38°40' W 009°24'0 0.0
2019-Apr-13 09:30N 38°40' W 009°24'0 0.0
2019-Apr-13 09:00N 38°40' W 009°24'0 0.1
2019-Apr-13 08:30N 38°40' W 009°25'2 3.1
2019-Apr-13 08:00N 38°40' W 009°26'1 1.9
2019-Apr-13 07:30N 38°40' W 009°25'0 0.7
2019-Apr-13 07:00N 38°40' W 009°26'0 0.7
2019-Apr-13 06:30N 38°40' W 009°26'1 2.1
2019-Apr-13 06:00N 38°40' W 009°25'1 1.8
2019-Apr-13 05:30N 38°40' W 009°24'0 0.0
2019-Apr-13 05:00N 38°40' W 009°24'0 0.0
2019-Apr-13 04:30N 38°40' W 009°24'0 0.0
2019-Apr-13 04:00N 38°40' W 009°24'0 0.0
2019-Apr-13 03:30N 38°40' W 009°24'0 0.0
2019-Apr-13 03:00N 38°40' W 009°24'0 0.0
2019-Apr-13 02:30N 38°40' W 009°24'0 0.0
2019-Apr-13 01:59N 38°40' W 009°24'0 0.0
2019-Apr-13 01:29N 38°40' W 009°24'0 0.0
2019-Apr-13 01:00N 38°40' W 009°24'0 0.0
2019-Apr-13 00:29N 38°40' W 009°24'0 0.0
2019-Apr-13 00:00N 38°40' W 009°24'0 0.0
2019-Apr-12 23:30N 38°40' W 009°24'0 0.0
2019-Apr-12 23:00N 38°40' W 009°24'0 0.0
2019-Apr-12 22:30N 38°40' W 009°24'2 4.2
2019-Apr-12 21:58N 38°38' W 009°24'2 4.7
2019-Apr-12 21:30N 38°38' W 009°21'4 7.5
2019-Apr-12 21:00N 38°41' W 009°17'3 6.3
2019-Apr-12 20:30N 38°42' W 009°14'0 0.1
2019-Apr-12 19:58N 38°42' W 009°14'0 0.0
2019-Apr-12 19:29N 38°42' W 009°14'0 0.0
2019-Apr-12 18:58N 38°42' W 009°14'0 0.0
2019-Apr-12 18:29N 38°42' W 009°14'0 0.0
2019-Apr-12 18:00N 38°42' W 009°14'0 0.0
2019-Apr-12 17:30N 38°42' W 009°14'0 0.0
2019-Apr-12 17:00N 38°42' W 009°14'0 0.0
2019-Apr-12 16:29N 38°42' W 009°14'0 0.0
2019-Apr-12 16:00N 38°42' W 009°14'0 0.0
2019-Apr-12 15:29N 38°42' W 009°14'0 0.0
2019-Apr-12 14:59N 38°42' W 009°14'0 0.0
2019-Apr-12 14:28N 38°42' W 009°14'0 0.0
2019-Apr-12 14:00N 38°42' W 009°14'0 0.0
2019-Apr-12 13:27N 38°42' W 009°14'0 0.0
2019-Apr-12 12:59N 38°42' W 009°14'0 0.0
2019-Apr-12 12:30N 38°42' W 009°14'0 0.0
2019-Apr-12 12:00N 38°42' W 009°14'0 0.0
2019-Apr-12 11:29N 38°42' W 009°14'0 0.0
2019-Apr-12 10:58N 38°42' W 009°14'0 0.0
2019-Apr-12 10:30N 38°42' W 009°14'0 0.0
2019-Apr-12 10:00N 38°42' W 009°14'0 0.0
2019-Apr-12 09:30N 38°42' W 009°14'0 0.0
2019-Apr-12 09:00N 38°42' W 009°14'0 0.0
2019-Apr-12 08:30N 38°42' W 009°14'0 0.0
2019-Apr-12 07:51N 38°42' W 009°14'0 0.0
2019-Apr-12 07:30N 38°42' W 009°14'0 0.0
2019-Apr-12 06:59N 38°42' W 009°14'0 0.0
2019-Apr-12 06:30N 38°42' W 009°14'0 0.0
2019-Apr-12 05:58N 38°42' W 009°14'0 0.0
2019-Apr-12 05:30N 38°42' W 009°14'0 0.0
2019-Apr-12 04:55N 38°42' W 009°14'0 0.0
2019-Apr-12 04:30N 38°42' W 009°14'0 0.0
2019-Apr-12 03:56N 38°42' W 009°14'0 0.0
2019-Apr-12 03:30N 38°42' W 009°14'0 0.0
2019-Apr-12 02:59N 38°42' W 009°14'0 0.0
2019-Apr-12 02:29N 38°42' W 009°14'0 0.0
2019-Apr-12 01:59N 38°42' W 009°14'0 0.0
2019-Apr-12 01:24N 38°42' W 009°14'0 0.0
2019-Apr-12 01:00N 38°42' W 009°14'0 0.0
2019-Apr-12 00:29N 38°42' W 009°14'0 0.0
2019-Apr-11 23:57N 38°42' W 009°14'0 0.0
2019-Apr-11 23:27N 38°42' W 009°14'0 0.0
2019-Apr-11 23:00N 38°42' W 009°14'0 0.0
2019-Apr-11 22:29N 38°42' W 009°14'0 0.0
2019-Apr-11 21:59N 38°42' W 009°14'0 0.0
2019-Apr-11 21:30N 38°42' W 009°14'0 0.0
2019-Apr-11 21:00N 38°42' W 009°14'0 0.0
2019-Apr-11 20:30N 38°42' W 009°14'0 0.0
2019-Apr-11 19:59N 38°42' W 009°14'0 0.0
2019-Apr-11 19:25N 38°42' W 009°14'0 0.0
2019-Apr-11 18:58N 38°42' W 009°14'0 0.0
2019-Apr-11 18:24N 38°42' W 009°14'0 0.0
2019-Apr-11 17:54N 38°42' W 009°14'0 0.0
2019-Apr-11 17:28N 38°42' W 009°14'0 0.0
2019-Apr-11 17:00N 38°42' W 009°14'0 0.0
2019-Apr-11 16:26N 38°42' W 009°14'0 0.0
2019-Apr-11 16:00N 38°42' W 009°14'0 0.0
2019-Apr-11 15:29N 38°42' W 009°14'0 0.0
2019-Apr-11 14:57N 38°42' W 009°14'0 0.0
2019-Apr-11 14:29N 38°42' W 009°14'0 0.0
2019-Apr-11 13:58N 38°42' W 009°14'0 0.0
2019-Apr-11 13:30N 38°42' W 009°14'0 0.0
2019-Apr-11 12:58N 38°42' W 009°14'0 0.0
2019-Apr-11 12:22N 38°42' W 009°14'0 0.0
2019-Apr-11 12:00N 38°42' W 009°14'0 0.0
2019-Apr-11 11:30N 38°42' W 009°14'0 0.0
2019-Apr-11 11:00N 38°42' W 009°14'0 0.0
2019-Apr-11 10:29N 38°42' W 009°14'0 0.0
2019-Apr-11 10:00N 38°42' W 009°14'0 0.0
2019-Apr-11 09:29N 38°42' W 009°14'0 0.0
2019-Apr-11 09:00N 38°42' W 009°14'0 0.0
2019-Apr-11 08:25N 38°42' W 009°14'0 0.0
2019-Apr-11 07:59N 38°42' W 009°14'0 0.0
2019-Apr-11 07:30N 38°42' W 009°14'0 0.0
2019-Apr-11 06:59N 38°42' W 009°14'0 0.0
2019-Apr-11 06:20N 38°42' W 009°14'0 0.0
2019-Apr-11 06:00N 38°42' W 009°14'0 0.0
2019-Apr-11 05:30N 38°42' W 009°14'0 0.0
2019-Apr-11 05:00N 38°42' W 009°14'0 0.0
2019-Apr-11 04:26N 38°42' W 009°14'0 0.0
2019-Apr-11 03:53N 38°42' W 009°14'0 0.0
2019-Apr-11 03:27N 38°42' W 009°14'0 0.0
2019-Apr-11 02:59N 38°42' W 009°14'0 0.0
2019-Apr-11 02:30N 38°42' W 009°14'0 0.0
2019-Apr-11 02:00N 38°42' W 009°14'0 0.0
2019-Apr-11 01:30N 38°42' W 009°14'0 0.0
2019-Apr-11 00:55N 38°42' W 009°14'0 0.0
2019-Apr-11 00:21N 38°42' W 009°14'0 0.0
2019-Apr-10 23:59N 38°42' W 009°14'0 0.0
2019-Apr-10 23:29N 38°42' W 009°14'0 0.0
2019-Apr-10 23:00N 38°42' W 009°14'0 0.0
2019-Apr-10 22:29N 38°42' W 009°14'0 0.0
2019-Apr-10 22:00N 38°42' W 009°14'0 0.0
2019-Apr-10 21:29N 38°42' W 009°14'0 0.0
2019-Apr-10 20:59N 38°42' W 009°14'0 0.0
2019-Apr-10 20:30N 38°42' W 009°14'0 0.0
2019-Apr-10 19:58N 38°42' W 009°14'0 0.0
2019-Apr-10 19:26N 38°42' W 009°14'0 0.0
2019-Apr-10 19:00N 38°42' W 009°14'0 0.0
2019-Apr-10 18:28N 38°42' W 009°14'0 0.0
2019-Apr-10 18:00N 38°42' W 009°14'0 0.0
2019-Apr-10 17:30N 38°42' W 009°14'0 0.0
2019-Apr-10 16:54N 38°42' W 009°14'0 0.0
2019-Apr-10 16:24N 38°42' W 009°14'0 0.0
2019-Apr-10 15:59N 38°42' W 009°14'0 0.0
2019-Apr-10 15:30N 38°42' W 009°14'0 0.0
2019-Apr-10 14:59N 38°42' W 009°14'0 0.0
2019-Apr-10 14:30N 38°42' W 009°14'0 0.0
2019-Apr-10 13:57N 38°42' W 009°14'0 0.0
2019-Apr-10 13:30N 38°42' W 009°14'0 0.0
2019-Apr-10 13:00N 38°42' W 009°14'0 0.0
2019-Apr-10 12:30N 38°42' W 009°14'0 0.0
2019-Apr-10 11:58N 38°42' W 009°14'0 0.0
2019-Apr-10 11:30N 38°42' W 009°14'0 0.0
2019-Apr-10 10:59N 38°42' W 009°14'0 0.0
2019-Apr-10 10:19N 38°42' W 009°14'0 0.0
2019-Apr-10 09:57N 38°42' W 009°14'0 0.0
2019-Apr-10 09:30N 38°42' W 009°14'0 0.0
2019-Apr-10 09:00N 38°42' W 009°14'0 0.0
2019-Apr-10 08:30N 38°42' W 009°14'0 0.0
2019-Apr-10 08:00N 38°42' W 009°14'0 0.0
2019-Apr-10 07:30N 38°42' W 009°14'0 0.0
2019-Apr-10 06:59N 38°42' W 009°14'0 0.0
2019-Apr-10 06:29N 38°42' W 009°14'0 0.0
2019-Apr-10 06:00N 38°42' W 009°14'0 0.0
2019-Apr-10 05:30N 38°42' W 009°14'0 0.0
2019-Apr-10 04:59N 38°42' W 009°14'0 0.0
2019-Apr-10 04:30N 38°42' W 009°14'0 0.0
2019-Apr-10 04:00N 38°42' W 009°14'0 0.0
2019-Apr-10 03:29N 38°42' W 009°14'0 0.0
2019-Apr-10 02:58N 38°42' W 009°14'0 0.0
2019-Apr-10 02:30N 38°42' W 009°14'0 0.0
2019-Apr-10 01:59N 38°42' W 009°14'0 0.0
2019-Apr-10 01:29N 38°42' W 009°14'0 0.0
2019-Apr-10 00:59N 38°42' W 009°14'0 0.0
2019-Apr-10 00:28N 38°42' W 009°14'0 0.0
2019-Apr-09 23:58N 38°42' W 009°14'0 0.0
2019-Apr-09 23:25N 38°42' W 009°14'0 0.0
2019-Apr-09 22:58N 38°42' W 009°14'0 0.0
2019-Apr-09 22:30N 38°42' W 009°14'0 0.0
2019-Apr-09 22:00N 38°42' W 009°14'0 0.0
2019-Apr-09 21:30N 38°42' W 009°14'0 0.0
2019-Apr-09 20:58N 38°42' W 009°14'0 0.0
2019-Apr-09 20:30N 38°42' W 009°14'0 0.0
2019-Apr-09 19:56N 38°42' W 009°14'0 0.0
2019-Apr-09 19:30N 38°42' W 009°14'0 0.0
2019-Apr-09 18:59N 38°42' W 009°14'0 0.0
2019-Apr-09 18:29N 38°42' W 009°14'0 0.0
2019-Apr-09 17:59N 38°42' W 009°14'0 0.0
2019-Apr-09 17:28N 38°42' W 009°14'0 0.0
2019-Apr-09 17:00N 38°42' W 009°14'0 0.0
2019-Apr-09 16:29N 38°42' W 009°14'0 0.0
2019-Apr-09 15:57N 38°42' W 009°14'0 0.0
2019-Apr-09 15:30N 38°42' W 009°14'0 0.0
2019-Apr-09 15:00N 38°42' W 009°14'0 0.0
2019-Apr-09 14:30N 38°42' W 009°14'0 0.0
2019-Apr-09 14:00N 38°42' W 009°14'0 0.0
2019-Apr-09 13:26N 38°42' W 009°14'0 0.0
2019-Apr-09 12:59N 38°42' W 009°14'0 0.0
2019-Apr-09 12:30N 38°42' W 009°14'0 0.0
2019-Apr-09 11:59N 38°42' W 009°14'0 0.0
2019-Apr-09 11:30N 38°42' W 009°14'0 0.0
2019-Apr-09 10:55N 38°42' W 009°14'0 0.0
2019-Apr-09 10:28N 38°42' W 009°14'0 0.0
2019-Apr-09 09:59N 38°42' W 009°14'0 0.0
2019-Apr-09 09:30N 38°42' W 009°14'0 0.0
2019-Apr-09 08:58N 38°42' W 009°14'0 0.0
2019-Apr-09 08:30N 38°42' W 009°14'0 0.0
2019-Apr-09 08:00N 38°42' W 009°14'0 0.0
2019-Apr-09 07:29N 38°42' W 009°14'0 0.0
2019-Apr-09 06:57N 38°42' W 009°14'0 0.0
2019-Apr-09 06:30N 38°42' W 009°14'0 0.0
2019-Apr-09 06:00N 38°42' W 009°14'0 0.0
2019-Apr-09 05:30N 38°42' W 009°14'0 0.0
2019-Apr-09 04:59N 38°42' W 009°14'0 0.0
2019-Apr-09 04:30N 38°42' W 009°14'0 0.0
2019-Apr-09 03:57N 38°42' W 009°14'0 0.0
2019-Apr-09 03:30N 38°42' W 009°14'0 0.0
2019-Apr-09 03:00N 38°42' W 009°14'0 0.0
2019-Apr-09 02:30N 38°42' W 009°14'0 0.0
2019-Apr-09 01:59N 38°42' W 009°14'0 0.0
2019-Apr-09 01:28N 38°42' W 009°14'0 0.0
2019-Apr-09 00:58N 38°42' W 009°14'0 0.0
2019-Apr-09 00:30N 38°42' W 009°14'0 0.0
2019-Apr-09 00:00N 38°42' W 009°14'0 0.0
2019-Apr-08 23:16N 38°42' W 009°14'0 0.0
2019-Apr-08 22:56N 38°42' W 009°14'0 0.0
2019-Apr-08 22:28N 38°42' W 009°14'0 0.0
2019-Apr-08 22:00N 38°42' W 009°14'0 0.0
2019-Apr-08 21:30N 38°42' W 009°14'0 0.0
2019-Apr-08 21:00N 38°42' W 009°14'0 0.0
2019-Apr-08 20:26N 38°42' W 009°14'0 0.0
2019-Apr-08 20:00N 38°42' W 009°14'0 0.0
2019-Apr-08 19:29N 38°42' W 009°14'0 0.0
2019-Apr-08 18:56N 38°42' W 009°14'0 0.0
2019-Apr-08 18:30N 38°42' W 009°14'0 0.0
2019-Apr-08 17:58N 38°42' W 009°14'0 0.0
2019-Apr-08 17:30N 38°42' W 009°14'0 0.0
2019-Apr-08 16:35N 38°42' W 009°14'0 0.0
2019-Apr-08 16:28N 38°42' W 009°14'0 0.0
2019-Apr-08 16:00N 38°42' W 009°14'0 0.0
2019-Apr-08 15:26N 38°42' W 009°14'0 0.0
2019-Apr-08 14:57N 38°42' W 009°14'0 0.0
2019-Apr-08 14:29N 38°42' W 009°14'0 0.0
2019-Apr-08 13:59N 38°42' W 009°14'0 0.0
2019-Apr-08 13:30N 38°42' W 009°14'0 0.0
2019-Apr-08 12:53N 38°42' W 009°14'0 0.0
2019-Apr-08 12:29N 38°42' W 009°14'0 0.0
2019-Apr-08 11:59N 38°42' W 009°14'0 0.0
2019-Apr-08 11:29N 38°42' W 009°14'0 0.0
2019-Apr-08 10:56N 38°42' W 009°14'0 0.0
2019-Apr-08 10:30N 38°42' W 009°14'0 0.0
2019-Apr-08 09:56N 38°42' W 009°14'0 0.0
2019-Apr-08 09:29N 38°42' W 009°14'0 0.0
2019-Apr-08 09:00N 38°42' W 009°14'0 0.0
2019-Apr-08 08:30N 38°42' W 009°14'0 0.0
2019-Apr-08 08:00N 38°42' W 009°14'0 0.0
2019-Apr-08 07:30N 38°42' W 009°14'0 0.0
2019-Apr-08 06:59N 38°42' W 009°14'0 0.0
2019-Apr-08 06:30N 38°42' W 009°14'0 0.0
2019-Apr-08 05:59N 38°42' W 009°14'0 0.0
2019-Apr-08 05:30N 38°42' W 009°14'0 0.0
2019-Apr-08 04:50N 38°42' W 009°14'0 0.0
2019-Apr-08 04:30N 38°42' W 009°14'0 0.0
2019-Apr-08 04:00N 38°42' W 009°14'0 0.0
2019-Apr-08 03:30N 38°42' W 009°14'0 0.0
2019-Apr-08 02:58N 38°42' W 009°14'0 0.0
2019-Apr-08 02:29N 38°42' W 009°14'0 0.0
2019-Apr-08 02:00N 38°42' W 009°14'0 0.0
2019-Apr-08 01:30N 38°42' W 009°14'0 0.0
2019-Apr-08 00:59N 38°42' W 009°14'0 0.0
2019-Apr-08 00:30N 38°42' W 009°14'0 0.0
2019-Apr-08 00:00N 38°42' W 009°14'0 0.0
2019-Apr-07 23:30N 38°42' W 009°14'0 0.0
2019-Apr-07 22:58N 38°42' W 009°14'0 0.0
2019-Apr-07 22:30N 38°42' W 009°14'0 0.0
2019-Apr-07 21:57N 38°42' W 009°14'0 0.0
2019-Apr-07 21:30N 38°42' W 009°14'0 0.0
2019-Apr-07 21:00N 38°42' W 009°14'0 0.0
2019-Apr-07 20:30N 38°42' W 009°14'0 0.0
2019-Apr-07 20:00N 38°42' W 009°14'0 0.0
2019-Apr-07 19:30N 38°42' W 009°14'0 0.0
2019-Apr-07 19:00N 38°42' W 009°14'0 0.0
2019-Apr-07 18:30N 38°42' W 009°14'0 0.0
2019-Apr-07 18:00N 38°42' W 009°14'0 0.0
2019-Apr-07 17:30N 38°42' W 009°14'0 0.0
2019-Apr-07 17:00N 38°42' W 009°14'0 0.0
2019-Apr-07 16:29N 38°42' W 009°14'0 0.0
2019-Apr-07 16:00N 38°42' W 009°14'0 0.0
2019-Apr-07 15:28N 38°42' W 009°14'0 0.0
2019-Apr-07 15:00N 38°42' W 009°14'0 0.0
2019-Apr-07 14:30N 38°42' W 009°14'0 0.0
2019-Apr-07 14:00N 38°42' W 009°14'0 0.0
2019-Apr-07 13:30N 38°42' W 009°14'0 0.0
2019-Apr-07 13:00N 38°42' W 009°14'0 0.0
2019-Apr-07 12:27N 38°42' W 009°14'0 0.0
2019-Apr-07 12:00N 38°42' W 009°14'0 0.0
2019-Apr-07 11:25N 38°42' W 009°14'0 0.0
2019-Apr-07 11:00N 38°42' W 009°14'0 0.0
2019-Apr-07 10:30N 38°42' W 009°14'0 0.0
2019-Apr-07 09:59N 38°42' W 009°14'0 0.0
2019-Apr-07 09:30N 38°42' W 009°14'0 0.0
2019-Apr-07 09:00N 38°42' W 009°14'0 0.0
2019-Apr-07 08:30N 38°42' W 009°14'0 0.0
2019-Apr-07 08:00N 38°42' W 009°14'  

Dump ship's entire track history